Terminal Aerodrome Forecast
Issued by NWS

Home | Current Version | Previous Version | Text Only | Print | Product List | Glossary On
Versions: 1 2 3 4 5 6 7 8 9 10 11 12 13 14 15 16 17 18 19
000
FTUS43 KDTX 261230 AAA
TAFDET
TAF AMD
KDET 261230Z 2613/2712 31007KT P6SM OVC020
     FM261900 28007KT P6SM BKN040
     FM270000 VRB04KT P6SM SCT045 OVC080
     FM270500 11007KT P6SM -SHRA SCT025 OVC035
     FM271000 11006KT P6SM OVC025=

USA.gov is the U.S. government's official web portal to all federal, state and local government web resources and services.